sensor_id;sensor_type;location;lat;lon;timestamp;pressure;altitude;pressure_sealevel;temperature;humidity
68941;BME280;55982;51.476;7.552;2023-01-15T00:01:29;98112.97;;;6.27;100.00
68941;BME280;55982;51.476;7.552;2023-01-15T00:03:57;98110.75;;;6.18;100.00
68941;BME280;55982;51.476;7.552;2023-01-15T00:06:25;98102.31;;;6.13;100.00
68941;BME280;55982;51.476;7.552;2023-01-15T00:08:51;98100.03;;;6.05;100.00
68941;BME280;55982;51.476;7.552;2023-01-15T00:11:18;98112.31;;;6.02;100.00
68941;BME280;55982;51.476;7.552;2023-01-15T00:13:45;98115.31;;;5.93;100.00
68941;BME280;55982;51.476;7.552;2023-01-15T00:16:13;98121.66;;;5.86;100.00
68941;BME280;55982;51.476;7.552;2023-01-15T00:18:39;98124.59;;;5.77;100.00
68941;BME280;55982;51.476;7.552;2023-01-15T00:21:08;98127.38;;;5.72;100.00
68941;BME280;55982;51.476;7.552;2023-01-15T00:23:34;98119.78;;;5.68;100.00
68941;BME280;55982;51.476;7.552;2023-01-15T00:26:20;98128.59;;;5.64;100.00
68941;BME280;55982;51.476;7.552;2023-01-15T00:29:07;98125.09;;;5.65;100.00
68941;BME280;55982;51.476;7.552;2023-01-15T00:31:33;98138.00;;;5.66;100.00
68941;BME280;55982;51.476;7.552;2023-01-15T00:34:00;98144.16;;;5.64;100.00
68941;BME280;55982;51.476;7.552;2023-01-15T00:36:25;98143.28;;;5.63;100.00
68941;BME280;55982;51.476;7.552;2023-01-15T00:38:51;98156.22;;;5.65;100.00
68941;BME280;55982;51.476;7.552;2023-01-15T00:41:17;98143.91;;;5.70;100.00
68941;BME280;55982;51.476;7.552;2023-01-15T00:43:42;98137.16;;;5.66;100.00
68941;BME280;55982;51.476;7.552;2023-01-15T00:46:08;98138.19;;;5.62;100.00
68941;BME280;55982;51.476;7.552;2023-01-15T00:48:34;98144.03;;;5.67;100.00
68941;BME280;55982;51.476;7.552;2023-01-15T00:51:00;98151.16;;;5.62;100.00
68941;BME280;55982;51.476;7.552;2023-01-15T00:53:26;98142.47;;;5.63;100.00
68941;BME280;55982;51.476;7.552;2023-01-15T00:55:52;98165.03;;;5.61;100.00
68941;BME280;55982;51.476;7.552;2023-01-15T00:58:17;98143.38;;;5.62;100.00
68941;BME280;55982;51.476;7.552;2023-01-15T01:00:43;98138.38;;;5.57;100.00
68941;BME280;55982;51.476;7.552;2023-01-15T01:03:08;98141.16;;;5.52;100.00
68941;BME280;55982;51.476;7.552;2023-01-15T01:05:34;98137.78;;;5.50;100.00
68941;BME280;55982;51.476;7.552;2023-01-15T01:07:59;98143.06;;;5.47;100.00
68941;BME280;55982;51.476;7.552;2023-01-15T01:10:25;98139.66;;;5.47;100.00
68941;BME280;55982;51.476;7.552;2023-01-15T01:12:51;98138.88;;;5.45;100.00
68941;BME280;55982;51.476;7.552;2023-01-15T01:15:21;98126.84;;;5.42;100.00
68941;BME280;55982;51.476;7.552;2023-01-15T01:17:47;98136.56;;;5.37;100.00
68941;BME280;55982;51.476;7.552;2023-01-15T01:20:16;98135.06;;;5.32;100.00
68941;BME280;55982;51.476;7.552;2023-01-15T01:22:42;98125.47;;;5.34;100.00
68941;BME280;55982;51.476;7.552;2023-01-15T01:25:08;98132.16;;;5.39;100.00
68941;BME280;55982;51.476;7.552;2023-01-15T01:27:34;98118.34;;;5.39;100.00
68941;BME280;55982;51.476;7.552;2023-01-15T01:29:59;98116.66;;;5.38;100.00
68941;BME280;55982;51.476;7.552;2023-01-15T01:32:24;98115.59;;;5.43;100.00
68941;BME280;55982;51.476;7.552;2023-01-15T01:34:50;98100.81;;;5.45;100.00
68941;BME280;55982;51.476;7.552;2023-01-15T01:37:15;98088.56;;;5.49;100.00
68941;BME280;55982;51.476;7.552;2023-01-15T01:39:41;98091.97;;;5.49;100.00
68941;BME280;55982;51.476;7.552;2023-01-15T01:42:13;98097.84;;;5.54;100.00
68941;BME280;55982;51.476;7.552;2023-01-15T01:47:20;98121.34;;;5.50;100.00
68941;BME280;55982;51.476;7.552;2023-01-15T01:49:53;98118.59;;;5.54;100.00
68941;BME280;55982;51.476;7.552;2023-01-15T01:52:27;98112.63;;;5.52;100.00
68941;BME280;55982;51.476;7.552;2023-01-15T01:54:54;98113.66;;;5.48;100.00
68941;BME280;55982;51.476;7.552;2023-01-15T01:57:21;98113.66;;;5.48;100.00
68941;BME280;55982;51.476;7.552;2023-01-15T01:59:47;98110.91;;;5.51;100.00
68941;BME280;55982;51.476;7.552;2023-01-15T02:02:14;98101.47;;;5.50;100.00
68941;BME280;55982;51.476;7.552;2023-01-15T02:04:40;98109.31;;;5.49;100.00
68941;BME280;55982;51.476;7.552;2023-01-15T02:07:06;98106.75;;;5.47;100.00
68941;BME280;55982;51.476;7.552;2023-01-15T02:09:32;98113.88;;;5.42;100.00
68941;BME280;55982;51.476;7.552;2023-01-15T02:12:06;98113.41;;;5.54;100.00
68941;BME280;55982;51.476;7.552;2023-01-15T02:14:49;98111.69;;;5.53;100.00
68941;BME280;55982;51.476;7.552;2023-01-15T02:18:08;98105.56;;;5.56;100.00
68941;BME280;55982;51.476;7.552;2023-01-15T02:20:34;98108.09;;;5.57;100.00
68941;BME280;55982;51.476;7.552;2023-01-15T02:28:47;98108.88;;;5.59;100.00
68941;BME280;55982;51.476;7.552;2023-01-15T02:33:48;98106.94;;;5.65;100.00
68941;BME280;55982;51.476;7.552;2023-01-15T02:36:17;98113.50;;;5.73;100.00
68941;BME280;55982;51.476;7.552;2023-01-15T02:38:47;98110.72;;;5.78;100.00
68941;BME280;55982;51.476;7.552;2023-01-15T02:41:14;98107.97;;;5.81;100.00
68941;BME280;55982;51.476;7.552;2023-01-15T02:43:49;98109.88;;;5.77;100.00
68941;BME280;55982;51.476;7.552;2023-01-15T02:46:16;98107.19;;;5.79;100.00
68941;BME280;55982;51.476;7.552;2023-01-15T02:48:45;98099.31;;;5.82;100.00
68941;BME280;55982;51.476;7.552;2023-01-15T02:51:19;98101.78;;;5.85;100.00
68941;BME280;55982;51.476;7.552;2023-01-15T02:53:48;98100.34;;;5.78;100.00
68941;BME280;55982;51.476;7.552;2023-01-15T02:56:18;98109.69;;;5.82;100.00
68941;BME280;55982;51.476;7.552;2023-01-15T02:58:47;98114.84;;;5.83;100.00
68941;BME280;55982;51.476;7.552;2023-01-15T03:01:18;98113.09;;;5.82;100.00
68941;BME280;55982;51.476;7.552;2023-01-15T03:09:05;98081.16;;;5.82;100.00
68941;BME280;55982;51.476;7.552;2023-01-15T03:11:34;98070.66;;;5.85;100.00
68941;BME280;55982;51.476;7.552;2023-01-15T03:14:09;98059.53;;;5.81;100.00
68941;BME280;55982;51.476;7.552;2023-01-15T03:16:39;98062.81;;;5.86;100.00
68941;BME280;55982;51.476;7.552;2023-01-15T03:27:03;98081.97;;;5.82;100.00
68941;BME280;55982;51.476;7.552;2023-01-15T03:29:35;98089.81;;;5.81;100.00
68941;BME280;55982;51.476;7.552;2023-01-15T03:32:02;98083.84;;;5.79;100.00
68941;BME280;55982;51.476;7.552;2023-01-15T03:34:36;98077.88;;;5.77;100.00
68941;BME280;55982;51.476;7.552;2023-01-15T03:37:02;98084.97;;;5.73;100.00
68941;BME280;55982;51.476;7.552;2023-01-15T03:39:28;98071.88;;;5.76;100.00
68941;BME280;55982;51.476;7.552;2023-01-15T03:50:03;98075.81;;;5.65;100.00
68941;BME280;55982;51.476;7.552;2023-01-15T03:55:17;98054.16;;;5.66;100.00
68941;BME280;55982;51.476;7.552;2023-01-15T03:57:50;98049.03;;;5.64;100.00
68941;BME280;55982;51.476;7.552;2023-01-15T04:00:18;98050.66;;;5.67;100.00
68941;BME280;55982;51.476;7.552;2023-01-15T04:02:45;98043.91;;;5.63;100.00
68941;BME280;55982;51.476;7.552;2023-01-15T04:05:12;98062.00;;;5.64;100.00
68941;BME280;55982;51.476;7.552;2023-01-15T04:07:40;98049.88;;;5.65;100.00
68941;BME280;55982;51.476;7.552;2023-01-15T04:10:08;98041.97;;;5.68;100.00
68941;BME280;55982;51.476;7.552;2023-01-15T04:12:33;98047.94;;;5.70;100.00
68941;BME280;55982;51.476;7.552;2023-01-15T04:14:59;98060.91;;;5.70;100.00
68941;BME280;55982;51.476;7.552;2023-01-15T04:17:24;98071.91;;;5.75;100.00
68941;BME280;55982;51.476;7.552;2023-01-15T04:19:50;98048.81;;;5.69;100.00
68941;BME280;55982;51.476;7.552;2023-01-15T04:22:15;98064.28;;;5.72;100.00
68941;BME280;55982;51.476;7.552;2023-01-15T04:24:41;98060.66;;;5.76;100.00
68941;BME280;55982;51.476;7.552;2023-01-15T04:27:06;98065.84;;;5.76;100.00
68941;BME280;55982;51.476;7.552;2023-01-15T04:29:32;98062.31;;;5.77;100.00
68941;BME280;55982;51.476;7.552;2023-01-15T04:31:57;98058.84;;;5.78;100.00
68941;BME280;55982;51.476;7.552;2023-01-15T04:34:24;98065.84;;;5.76;100.00
68941;BME280;55982;51.476;7.552;2023-01-15T04:36:50;98061.69;;;5.72;100.00
68941;BME280;55982;51.476;7.552;2023-01-15T04:39:16;98053.91;;;5.72;100.00
68941;BME280;55982;51.476;7.552;2023-01-15T04:41:41;98062.72;;;5.68;100.00
68941;BME280;55982;51.476;7.552;2023-01-15T04:44:25;98062.56;;;5.71;100.00
68941;BME280;55982;51.476;7.552;2023-01-15T04:46:52;98071.13;;;5.73;100.00
68941;BME280;55982;51.476;7.552;2023-01-15T04:49:18;98083.22;;;5.74;100.00
68941;BME280;55982;51.476;7.552;2023-01-15T04:51:44;98075.50;;;5.72;100.00
68941;BME280;55982;51.476;7.552;2023-01-15T04:54:11;98068.88;;;5.65;100.00
68941;BME280;55982;51.476;7.552;2023-01-15T04:56:39;98067.97;;;5.66;100.00
68941;BME280;55982;51.476;7.552;2023-01-15T04:59:05;98059.09;;;5.72;100.00
68941;BME280;55982;51.476;7.552;2023-01-15T05:01:31;98057.38;;;5.71;100.00
68941;BME280;55982;51.476;7.552;2023-01-15T05:03:56;98057.34;;;5.72;100.00
68941;BME280;55982;51.476;7.552;2023-01-15T05:06:23;98042.66;;;5.71;100.00
68941;BME280;55982;51.476;7.552;2023-01-15T05:08:49;98056.31;;;5.76;100.00
68941;BME280;55982;51.476;7.552;2023-01-15T05:11:14;98070.06;;;5.78;100.00
68941;BME280;55982;51.476;7.552;2023-01-15T05:13:40;98080.44;;;5.78;100.00
68941;BME280;55982;51.476;7.552;2023-01-15T05:16:17;98091.88;;;5.73;100.00
68941;BME280;55982;51.476;7.552;2023-01-15T05:18:44;98081.50;;;5.73;100.00
68941;BME280;55982;51.476;7.552;2023-01-15T05:21:22;98077.06;;;5.76;100.00
68941;BME280;55982;51.476;7.552;2023-01-15T05:23:49;98070.25;;;5.74;100.00
68941;BME280;55982;51.476;7.552;2023-01-15T05:26:16;98060.84;;;5.71;100.00
68941;BME280;55982;51.476;7.552;2023-01-15T05:28:43;98075.50;;;5.72;100.00
68941;BME280;55982;51.476;7.552;2023-01-15T05:31:11;98077.88;;;5.77;100.00
68941;BME280;55982;51.476;7.552;2023-01-15T05:33:37;98073.72;;;5.73;100.00
68941;BME280;55982;51.476;7.552;2023-01-15T05:36:08;98074.75;;;5.69;100.00
68941;BME280;55982;51.476;7.552;2023-01-15T05:38:34;98088.50;;;5.71;100.00
68941;BME280;55982;51.476;7.552;2023-01-15T05:41:05;98088.41;;;5.74;100.00
68941;BME280;55982;51.476;7.552;2023-01-15T05:43:51;98082.25;;;5.76;100.00
68941;BME280;55982;51.476;7.552;2023-01-15T05:46:16;98074.50;;;5.75;100.00
68941;BME280;55982;51.476;7.552;2023-01-15T05:48:42;98076.22;;;5.76;100.00
68941;BME280;55982;51.476;7.552;2023-01-15T05:51:09;98071.03;;;5.76;100.00
68941;BME280;55982;51.476;7.552;2023-01-15T05:53:34;98079.00;;;5.71;100.00
68941;BME280;55982;51.476;7.552;2023-01-15T05:56:01;98070.25;;;5.74;100.00
68941;BME280;55982;51.476;7.552;2023-01-15T05:58:26;98074.00;;;5.67;100.00
68941;BME280;55982;51.476;7.552;2023-01-15T06:00:51;98076.59;;;5.67;100.00
68941;BME280;55982;51.476;7.552;2023-01-15T06:03:17;98074.75;;;5.69;100.00
68941;BME280;55982;51.476;7.552;2023-01-15T06:05:42;98086.84;;;5.70;100.00
68941;BME280;55982;51.476;7.552;2023-01-15T06:08:07;98079.19;;;5.67;100.00
68941;BME280;55982;51.476;7.552;2023-01-15T06:10:33;98089.38;;;5.71;100.00
68941;BME280;55982;51.476;7.552;2023-01-15T06:12:58;98090.22;;;5.72;100.00
68941;BME280;55982;51.476;7.552;2023-01-15T06:15:23;98102.16;;;5.76;100.00
68941;BME280;55982;51.476;7.552;2023-01-15T06:17:49;98098.53;;;5.80;100.00
68941;BME280;55982;51.476;7.552;2023-01-15T06:20:15;98093.53;;;5.75;100.00
68941;BME280;55982;51.476;7.552;2023-01-15T06:22:40;98102.94;;;5.78;100.00
68941;BME280;55982;51.476;7.552;2023-01-15T06:25:06;98112.38;;;5.79;100.00
68941;BME280;55982;51.476;7.552;2023-01-15T06:27:31;98086.44;;;5.79;100.00
68941;BME280;55982;51.476;7.552;2023-01-15T06:29:57;98096.81;;;5.79;100.00
68941;BME280;55982;51.476;7.552;2023-01-15T06:32:24;98098.38;;;5.83;100.00
68941;BME280;55982;51.476;7.552;2023-01-15T06:34:49;98107.91;;;5.84;100.00
68941;BME280;55982;51.476;7.552;2023-01-15T06:37:15;98096.28;;;5.92;100.00
68941;BME280;55982;51.476;7.552;2023-01-15T06:39:40;98104.06;;;5.92;100.00
68941;BME280;55982;51.476;7.552;2023-01-15T06:42:05;98111.78;;;5.94;100.00
68941;BME280;55982;51.476;7.552;2023-01-15T06:44:49;98111.66;;;5.97;100.00
68941;BME280;55982;51.476;7.552;2023-01-15T06:47:33;98103.81;;;5.98;100.00
68941;BME280;55982;51.476;7.552;2023-01-15T06:49:59;98113.50;;;5.95;100.00
68941;BME280;55982;51.476;7.552;2023-01-15T06:52:26;98116.72;;;6.00;100.00
68941;BME280;55982;51.476;7.552;2023-01-15T06:54:52;98112.56;;;5.96;100.00
68941;BME280;55982;51.476;7.552;2023-01-15T06:57:17;98109.97;;;5.96;100.00
68941;BME280;55982;51.476;7.552;2023-01-15T06:59:43;98114.06;;;6.01;100.00
68941;BME280;55982;51.476;7.552;2023-01-15T07:02:10;98111.53;;;6.00;100.00
68941;BME280;55982;51.476;7.552;2023-01-15T07:04:36;98115.75;;;6.02;100.00
68941;BME280;55982;51.476;7.552;2023-01-15T07:07:01;98107.19;;;6.00;100.00
68941;BME280;55982;51.476;7.552;2023-01-15T07:09:26;98102.44;;;6.10;100.00
68941;BME280;55982;51.476;7.552;2023-01-15T07:11:52;98111.28;;;6.06;100.00
68941;BME280;55982;51.476;7.552;2023-01-15T07:14:20;98099.16;;;6.06;100.00
68941;BME280;55982;51.476;7.552;2023-01-15T07:16:46;98094.91;;;6.04;100.00
68941;BME280;55982;51.476;7.552;2023-01-15T07:19:12;98101.28;;;5.97;100.00
68941;BME280;55982;51.476;7.552;2023-01-15T07:21:38;98102.84;;;6.01;100.00
68941;BME280;55982;51.476;7.552;2023-01-15T07:24:04;98105.22;;;6.05;100.00
68941;BME280;55982;51.476;7.552;2023-01-15T07:26:31;98102.59;;;6.07;100.00
68941;BME280;55982;51.476;7.552;2023-01-15T07:28:57;98096.41;;;6.09;100.00
68941;BME280;55982;51.476;7.552;2023-01-15T07:31:22;98097.13;;;6.13;100.00
68941;BME280;55982;51.476;7.552;2023-01-15T07:33:48;98099.72;;;6.13;100.00
68941;BME280;55982;51.476;7.552;2023-01-15T07:36:16;98099.22;;;6.05;100.00
68941;BME280;55982;51.476;7.552;2023-01-15T07:38:42;98089.66;;;6.05;100.00
68941;BME280;55982;51.476;7.552;2023-01-15T07:41:07;98094.81;;;6.07;100.00
68941;BME280;55982;51.476;7.552;2023-01-15T07:43:51;98097.25;;;6.10;100.00
68941;BME280;55982;51.476;7.552;2023-01-15T07:46:49;98092.84;;;6.12;100.00
68941;BME280;55982;51.476;7.552;2023-01-15T07:49:32;98109.34;;;6.11;100.00
68941;BME280;55982;51.476;7.552;2023-01-15T07:52:15;98126.75;;;6.09;100.00
68941;BME280;55982;51.476;7.552;2023-01-15T07:54:42;98109.47;;;6.08;100.00
68941;BME280;55982;51.476;7.552;2023-01-15T07:57:07;98104.25;;;6.08;100.00
68941;BME280;55982;51.476;7.552;2023-01-15T07:59:33;98136.13;;;6.11;100.00
68941;BME280;55982;51.476;7.552;2023-01-15T08:01:58;98142.16;;;6.12;100.00
68941;BME280;55982;51.476;7.552;2023-01-15T08:04:24;98142.16;;;6.12;100.00
68941;BME280;55982;51.476;7.552;2023-01-15T08:06:49;98143.84;;;6.13;100.00
68941;BME280;55982;51.476;7.552;2023-01-15T08:09:15;98136.06;;;6.13;100.00
68941;BME280;55982;51.476;7.552;2023-01-15T08:11:40;98131.78;;;6.12;100.00
68941;BME280;55982;51.476;7.552;2023-01-15T08:14:24;98145.41;;;6.17;100.00
68941;BME280;55982;51.476;7.552;2023-01-15T08:17:08;98155.78;;;6.17;100.00
68941;BME280;55982;51.476;7.552;2023-01-15T08:19:34;98155.78;;;6.17;100.00
68941;BME280;55982;51.476;7.552;2023-01-15T08:21:59;98155.66;;;6.20;100.00
68941;BME280;55982;51.476;7.552;2023-01-15T08:24:26;98157.34;;;6.21;100.00
68941;BME280;55982;51.476;7.552;2023-01-15T08:26:52;98168.50;;;6.23;100.00
68941;BME280;55982;51.476;7.552;2023-01-15T08:29:19;98179.56;;;6.28;100.00
68941;BME280;55982;51.476;7.552;2023-01-15T08:31:44;98170.00;;;6.28;100.00
68941;BME280;55982;51.476;7.552;2023-01-15T08:34:10;98176.75;;;6.32;100.00
68941;BME280;55982;51.476;7.552;2023-01-15T08:36:35;98167.38;;;6.30;100.00
68941;BME280;55982;51.476;7.552;2023-01-15T08:39:01;98164.47;;;6.36;100.00
68941;BME280;55982;51.476;7.552;2023-01-15T08:41:27;98173.25;;;6.33;100.00
68941;BME280;55982;51.476;7.552;2023-01-15T08:43:52;98178.25;;;6.38;100.00
68941;BME280;55982;51.476;7.552;2023-01-15T08:46:19;98163.50;;;6.38;100.00
68941;BME280;55982;51.476;7.552;2023-01-15T08:48:44;98160.06;;;6.38;100.00
68941;BME280;55982;51.476;7.552;2023-01-15T08:51:11;98155.88;;;6.35;100.00
68941;BME280;55982;51.476;7.552;2023-01-15T08:53:37;98158.50;;;6.34;100.00
68941;BME280;55982;51.476;7.552;2023-01-15T08:56:03;98188.84;;;6.33;100.00
68941;BME280;55982;51.476;7.552;2023-01-15T08:58:30;98175.09;;;6.31;100.00
68941;BME280;55982;51.476;7.552;2023-01-15T09:01:03;98189.81;;;6.31;100.00
68941;BME280;55982;51.476;7.552;2023-01-15T09:03:29;98183.13;;;6.25;100.00
68941;BME280;55982;51.476;7.552;2023-01-15T09:05:57;98179.41;;;6.31;100.00
68941;BME280;55982;51.476;7.552;2023-01-15T09:08:23;98189.81;;;6.31;100.00
68941;BME280;55982;51.476;7.552;2023-01-15T09:10:49;98200.91;;;6.34;100.00
68941;BME280;55982;51.476;7.552;2023-01-15T09:13:14;98192.47;;;6.29;100.00
68941;BME280;55982;51.476;7.552;2023-01-15T09:15:40;98206.34;;;6.28;100.00
68941;BME280;55982;51.476;7.552;2023-01-15T09:18:05;98209.81;;;6.29;100.00
68941;BME280;55982;51.476;7.552;2023-01-15T09:20:32;98207.38;;;6.24;100.00
68941;BME280;55982;51.476;7.552;2023-01-15T09:22:58;98199.03;;;6.18;100.00
68941;BME280;55982;51.476;7.552;2023-01-15T09:25:23;98204.31;;;6.15;100.00
68941;BME280;55982;51.476;7.552;2023-01-15T09:27:49;98207.00;;;6.13;100.00
68941;BME280;55982;51.476;7.552;2023-01-15T09:30:18;98209.78;;;6.09;100.00
68941;BME280;55982;51.476;7.552;2023-01-15T09:32:43;98195.25;;;6.05;100.00
68941;BME280;55982;51.476;7.552;2023-01-15T09:35:09;98197.06;;;6.03;100.00
68941;BME280;55982;51.476;7.552;2023-01-15T09:37:35;98196.53;;;5.95;100.00
68941;BME280;55982;51.476;7.552;2023-01-15T09:40:00;98211.44;;;5.90;100.00
68941;BME280;55982;51.476;7.552;2023-01-15T09:42:39;98203.09;;;5.82;100.00
68941;BME280;55982;51.476;7.552;2023-01-15T09:45:20;98220.91;;;5.91;100.00
68941;BME280;55982;51.476;7.552;2023-01-15T09:53:44;98213.56;;;6.42;100.00
68941;BME280;55982;51.476;7.552;2023-01-15T09:56:21;98204.75;;;6.46;100.00
68941;BME280;55982;51.476;7.552;2023-01-15T09:58:48;98208.03;;;6.70;100.00
68941;BME280;55982;51.476;7.552;2023-01-15T10:01:17;98207.97;;;7.28;100.00
68941;BME280;55982;51.476;7.552;2023-01-15T10:03:48;98196.00;;;7.62;100.00
68941;BME280;55982;51.476;7.552;2023-01-15T10:06:24;98194.91;;;7.11;100.00
68941;BME280;55982;51.476;7.552;2023-01-15T10:09:00;98198.88;;;6.61;100.00
68941;BME280;55982;51.476;7.552;2023-01-15T10:11:33;98192.94;;;6.39;100.00
68941;BME280;55982;51.476;7.552;2023-01-15T10:14:30;98208.72;;;6.13;100.00
68941;BME280;55982;51.476;7.552;2023-01-15T10:17:13;98213.50;;;6.23;100.00
68941;BME280;55982;51.476;7.552;2023-01-15T10:19:43;98199.94;;;6.37;100.00
68941;BME280;55982;51.476;7.552;2023-01-15T10:25:18;98213.34;;;7.25;100.00
68941;BME280;55982;51.476;7.552;2023-01-15T10:27:50;98171.84;;;7.22;100.00
68941;BME280;55982;51.476;7.552;2023-01-15T10:30:24;98209.50;;;7.51;100.00
68941;BME280;55982;51.476;7.552;2023-01-15T10:32:55;98227.09;;;7.27;100.00
68941;BME280;55982;51.476;7.552;2023-01-15T10:38:00;98218.22;;;6.94;100.00
68941;BME280;55982;51.476;7.552;2023-01-15T10:43:48;98210.78;;;7.05;100.00
68941;BME280;55982;51.476;7.552;2023-01-15T10:46:22;98209.19;;;7.21;100.00
68941;BME280;55982;51.476;7.552;2023-01-15T10:48:56;98219.50;;;7.04;100.00
68941;BME280;55982;51.476;7.552;2023-01-15T10:51:27;98220.09;;;7.29;100.00
68941;BME280;55982;51.476;7.552;2023-01-15T10:54:10;98209.81;;;7.26;100.00
68941;BME280;55982;51.476;7.552;2023-01-15T10:59:17;98210.78;;;7.05;100.00
68941;BME280;55982;51.476;7.552;2023-01-15T11:01:48;98211.00;;;6.81;100.00
68941;BME280;55982;51.476;7.552;2023-01-15T11:04:15;98211.81;;;7.01;100.00
68941;BME280;55982;51.476;7.552;2023-01-15T11:06:40;98199.41;;;7.08;100.00
68941;BME280;55982;51.476;7.552;2023-01-15T11:09:19;98200.09;;;7.11;100.00
68941;BME280;55982;51.476;7.552;2023-01-15T11:11:50;98201.53;;;7.18;100.00
68941;BME280;55982;51.476;7.552;2023-01-15T11:14:36;98218.38;;;7.28;100.00
68941;BME280;55982;51.476;7.552;2023-01-15T11:17:22;98208.28;;;7.41;100.00
68941;BME280;55982;51.476;7.552;2023-01-15T11:22:55;98208.69;;;7.51;100.00
68941;BME280;55982;51.476;7.552;2023-01-15T11:25:27;98207.84;;;7.50;100.00
68941;BME280;55982;51.476;7.552;2023-01-15T11:27:53;98203.88;;;7.41;100.00
68941;BME280;55982;51.476;7.552;2023-01-15T11:30:33;98214.28;;;7.41;100.00
68941;BME280;55982;51.476;7.552;2023-01-15T11:33:04;98223.44;;;7.50;100.00
68941;BME280;55982;51.476;7.552;2023-01-15T11:35:31;98207.34;;;7.61;100.00
68941;BME280;55982;51.476;7.552;2023-01-15T11:38:13;98221.34;;;7.39;100.00
68941;BME280;55982;51.476;7.552;2023-01-15T11:40:38;98216.81;;;7.24;100.00
68941;BME280;55982;51.476;7.552;2023-01-15T11:43:19;98213.59;;;7.19;100.00
68941;BME280;55982;51.476;7.552;2023-01-15T11:46:03;98208.41;;;7.19;100.00
68941;BME280;55982;51.476;7.552;2023-01-15T11:48:47;98220.47;;;7.20;100.00
68941;BME280;55982;51.476;7.552;2023-01-15T11:51:45;98213.88;;;7.13;100.00
68941;BME280;55982;51.476;7.552;2023-01-15T11:54:13;98221.56;;;7.16;100.00
68941;BME280;55982;51.476;7.552;2023-01-15T11:56:44;98203.19;;;7.19;100.00
68941;BME280;55982;51.476;7.552;2023-01-15T11:59:15;98222.03;;;7.24;100.00
68941;BME280;55982;51.476;7.552;2023-01-15T12:01:59;98217.25;;;7.34;100.00
68941;BME280;55982;51.476;7.552;2023-01-15T12:04:44;98216.28;;;7.36;100.00
68941;BME280;55982;51.476;7.552;2023-01-15T12:07:13;98214.88;;;7.29;99.68
68941;BME280;55982;51.476;7.552;2023-01-15T12:12:32;98205.81;;;7.19;99.81
68941;BME280;55982;51.476;7.552;2023-01-15T12:20:27;98214.16;;;7.07;100.00
68941;BME280;55982;51.476;7.552;2023-01-15T12:28:34;98207.63;;;6.99;100.00
68941;BME280;55982;51.476;7.552;2023-01-15T12:31:09;98199.88;;;6.97;100.00
68941;BME280;55982;51.476;7.552;2023-01-15T12:33:53;98204.88;;;7.02;100.00
68941;BME280;55982;51.476;7.552;2023-01-15T12:38:59;98172.25;;;7.32;100.00
68941;BME280;55982;51.476;7.552;2023-01-15T12:41:37;98203.19;;;7.19;100.00
68941;BME280;55982;51.476;7.552;2023-01-15T12:44:37;98200.09;;;7.11;100.00
68941;BME280;55982;51.476;7.552;2023-01-15T12:50:43;98201.22;;;7.06;100.00
68941;BME280;55982;51.476;7.552;2023-01-15T12:53:26;98188.72;;;7.14;100.00
68941;BME280;55982;51.476;7.552;2023-01-15T13:01:30;98194.47;;;7.20;100.00
68941;BME280;55982;51.476;7.552;2023-01-15T13:04:19;98171.44;;;7.31;100.00
68941;BME280;55982;51.476;7.552;2023-01-15T13:06:48;98179.03;;;7.17;100.00
68941;BME280;55982;51.476;7.552;2023-01-15T13:12:13;98170.72;;;7.09;100.00
68941;BME280;55982;51.476;7.552;2023-01-15T13:14:39;98177.75;;;7.07;100.00
68941;BME280;55982;51.476;7.552;2023-01-15T13:17:22;98164.56;;;7.12;100.00
68941;BME280;55982;51.476;7.552;2023-01-15T13:22:29;98179.59;;;7.43;100.00
68941;BME280;55982;51.476;7.552;2023-01-15T13:33:29;98191.25;;;7.15;100.00
68941;BME280;55982;51.476;7.552;2023-01-15T13:36:28;98209.94;;;7.05;100.00
68941;BME280;55982;51.476;7.552;2023-01-15T13:38:58;98186.56;;;7.05;100.00
68941;BME280;55982;51.476;7.552;2023-01-15T13:41:26;98198.81;;;7.01;100.00
68941;BME280;55982;51.476;7.552;2023-01-15T13:44:24;98197.00;;;7.03;100.00
68941;BME280;55982;51.476;7.552;2023-01-15T13:47:08;98197.25;;;6.97;100.00
68941;BME280;55982;51.476;7.552;2023-01-15T13:49:37;98206.00;;;6.96;100.00
68941;BME280;55982;51.476;7.552;2023-01-15T13:52:05;98202.63;;;6.94;100.00
68941;BME280;55982;51.476;7.552;2023-01-15T13:54:35;98208.06;;;6.88;100.00
68941;BME280;55982;51.476;7.552;2023-01-15T13:57:31;98204.63;;;6.88;100.00
68941;BME280;55982;51.476;7.552;2023-01-15T13:59:58;98210.94;;;6.82;100.00
68941;BME280;55982;51.476;7.552;2023-01-15T14:02:33;98213.69;;;6.79;100.00
68941;BME280;55982;51.476;7.552;2023-01-15T14:05:30;98215.50;;;6.77;100.00
68941;BME280;55982;51.476;7.552;2023-01-15T14:07:57;98211.88;;;6.81;100.00
68941;BME280;55982;51.476;7.552;2023-01-15T14:10:36;98215.25;;;6.83;100.00
68941;BME280;55982;51.476;7.552;2023-01-15T14:24:40;98233.56;;;6.80;100.00
68941;BME280;55982;51.476;7.552;2023-01-15T14:30:01;98232.66;;;6.81;100.00
68941;BME280;55982;51.476;7.552;2023-01-15T14:32:45;98243.06;;;6.81;100.00
68941;BME280;55982;51.476;7.552;2023-01-15T14:35:19;98242.91;;;6.84;100.00
68941;BME280;55982;51.476;7.552;2023-01-15T14:37:57;98247.66;;;6.95;100.00
68941;BME280;55982;51.476;7.552;2023-01-15T14:40:27;98232.50;;;6.84;100.00
68941;BME280;55982;51.476;7.552;2023-01-15T14:42:55;98227.00;;;6.72;100.00
68941;BME280;55982;51.476;7.552;2023-01-15T14:45:35;98233.31;;;6.66;100.00
68941;BME280;55982;51.476;7.552;2023-01-15T14:48:04;98233.56;;;6.60;100.00
68941;BME280;55982;51.476;7.552;2023-01-15T14:50:37;98237.22;;;6.56;100.00
68941;BME280;55982;51.476;7.552;2023-01-15T14:55:57;98189.59;;;6.56;100.00
68941;BME280;55982;51.476;7.552;2023-01-15T15:01:34;98254.47;;;6.57;100.00
68941;BME280;55982;51.476;7.552;2023-01-15T15:04:21;98224.81;;;6.42;100.00
68941;BME280;55982;51.476;7.552;2023-01-15T15:06:54;98248.09;;;6.44;100.00
68941;BME280;55982;51.476;7.552;2023-01-15T15:09:28;98245.41;;;6.47;100.00
68941;BME280;55982;51.476;7.552;2023-01-15T15:12:04;98260.53;;;6.58;100.00